Time;durP1;ratioP1;P1;durP2;ratioP2;P2;SDS_P1;SDS_P2;PMS_P1;PMS_P2;Temp;Humidity;BMP_temperature;BMP_pressure;BME280_temperature;BME280_humidity;BME280_pressure;Samples;Min_cycle;Max_cycle;Signal;HPM_P1;HPM_P2
2021/07/31 00:00:19;;;;;;;1.20;1.10;;;17.70;99.90;;;;;;5073737;28;20468;-80
2021/07/31 00:02:45;;;;;;;2.10;0.93;;;17.70;99.90;;;;;;5073529;28;20441;-81
2021/07/31 00:05:12;;;;;;;2.93;1.80;;;17.70;99.90;;;;;;5073570;28;20819;-80
2021/07/31 00:07:41;;;;;;;1.90;1.80;;;17.60;99.90;;;;;;5074187;28;20448;-81
2021/07/31 00:10:08;;;;;;;2.03;1.00;;;17.70;99.90;;;;;;5073427;28;20464;-81
2021/07/31 00:12:37;;;;;;;1.23;1.07;;;17.70;99.90;;;;;;5072462;28;20480;-81
2021/07/31 00:15:05;;;;;;;4.00;1.10;;;17.70;99.90;;;;;;5073421;28;20468;-81
2021/07/31 00:17:32;;;;;;;1.97;1.10;;;17.70;99.90;;;;;;5073395;28;20453;-81
2021/07/31 00:19:59;;;;;;;1.93;1.00;;;17.70;99.90;;;;;;5073332;28;20467;-80
2021/07/31 00:22:26;;;;;;;1.17;1.07;;;17.80;99.90;;;;;;5073337;28;20440;-81
2021/07/31 00:24:53;;;;;;;2.27;1.17;;;17.80;99.90;;;;;;5073327;28;20459;-81
2021/07/31 00:27:19;;;;;;;2.00;1.43;;;17.80;99.90;;;;;;5073320;28;20432;-81
2021/07/31 00:29:47;;;;;;;1.47;1.23;;;17.90;99.90;;;;;;5073127;28;20457;-81
2021/07/31 00:32:14;;;;;;;0.80;0.80;;;17.90;99.90;;;;;;5073163;28;20492;-81
2021/07/31 00:34:41;;;;;;;1.87;1.17;;;17.90;99.90;;;;;;5073321;28;20453;-81
2021/07/31 00:37:08;;;;;;;2.10;1.53;;;17.90;99.90;;;;;;5072956;28;20441;-81
2021/07/31 00:39:38;;;;;;;1.63;0.93;;;17.90;99.90;;;;;;5072917;28;20987;-81
2021/07/31 00:42:05;;;;;;;2.27;0.77;;;17.90;99.90;;;;;;5073182;28;20527;-81
2021/07/31 00:44:32;;;;;;;1.53;1.20;;;17.90;99.90;;;;;;5073130;28;20454;-81
2021/07/31 00:47:01;;;;;;;0.90;0.90;;;17.90;99.90;;;;;;5073097;28;20445;-81
2021/07/31 00:49:28;;;;;;;1.30;1.00;;;17.90;99.90;;;;;;5072727;28;20792;-81
2021/07/31 00:51:55;;;;;;;2.13;1.50;;;17.90;99.90;;;;;;5072854;28;20472;-81
2021/07/31 00:54:22;;;;;;;2.30;1.30;;;17.90;99.90;;;;;;5073066;28;20456;-81
2021/07/31 00:56:49;;;;;;;3.80;1.37;;;17.90;99.90;;;;;;5073031;28;20456;-81
2021/07/31 00:59:21;;;;;;;1.87;1.50;;;17.90;99.90;;;;;;5072742;28;20788;-81
2021/07/31 01:01:49;;;;;;;1.73;1.30;;;17.90;99.90;;;;;;5072909;28;20496;-81
2021/07/31 01:04:17;;;;;;;1.63;1.00;;;17.90;99.90;;;;;;5072930;28;20467;-81
2021/07/31 01:06:43;;;;;;;2.27;0.80;;;17.90;99.90;;;;;;5072884;28;20453;-81
2021/07/31 01:09:11;;;;;;;0.50;0.50;;;17.90;99.90;;;;;;5073559;28;20464;-80
2021/07/31 01:11:38;;;;;;;1.13;1.03;;;17.90;99.90;;;;;;5073067;28;20469;-79
2021/07/31 01:14:05;;;;;;;0.60;0.60;;;17.80;99.90;;;;;;5072510;28;20991;-80
2021/07/31 01:16:32;;;;;;;1.03;0.60;;;17.70;99.90;;;;;;5072852;28;20445;-80
2021/07/31 01:18:58;;;;;;;1.43;0.83;;;17.50;99.90;;;;;;5072573;28;20433;-79
2021/07/31 01:21:38;;;;;;;0.60;0.50;;;17.30;99.90;;;;;;5072633;28;20964;-79
2021/07/31 01:24:06;;;;;;;1.10;1.10;;;17.20;99.90;;;;;;5073814;28;20440;-79
2021/07/31 01:26:38;;;;;;;1.23;0.50;;;17.10;99.90;;;;;;5076418;28;20444;-79
2021/07/31 01:29:06;;;;;;;1.00;0.60;;;17.00;99.90;;;;;;5076326;28;20425;-79
2021/07/31 01:31:33;;;;;;;1.40;0.90;;;16.80;99.90;;;;;;5076228;28;20461;-80
2021/07/31 01:34:00;;;;;;;0.90;0.70;;;16.80;99.90;;;;;;5076254;28;20480;-79
2021/07/31 01:36:27;;;;;;;0.90;0.50;;;16.70;99.90;;;;;;5075975;28;20437;-80
2021/07/31 01:38:55;;;;;;;1.63;0.73;;;16.60;99.90;;;;;;5075705;28;20491;-80
2021/07/31 01:41:22;;;;;;;1.00;0.53;;;16.60;99.90;;;;;;5075904;28;20463;-80
2021/07/31 01:43:49;;;;;;;2.30;0.50;;;16.60;99.90;;;;;;5075792;28;20445;-80
2021/07/31 01:46:16;;;;;;;0.57;0.43;;;16.50;99.90;;;;;;5075817;28;20440;-80
2021/07/31 01:48:43;;;;;;;0.90;0.60;;;16.50;99.90;;;;;;5075781;28;20436;-80
2021/07/31 01:51:10;;;;;;;0.60;0.50;;;16.40;99.90;;;;;;5076235;28;20476;-80
2021/07/31 01:53:36;;;;;;;1.13;0.50;;;16.30;99.90;;;;;;5075878;28;20485;-80
2021/07/31 01:56:05;;;;;;;1.07;0.43;;;16.30;99.90;;;;;;5075579;28;20456;-80
2021/07/31 01:58:32;;;;;;;0.83;0.70;;;16.20;99.90;;;;;;5075810;28;20453;-80
2021/07/31 02:00:59;;;;;;;0.67;0.50;;;16.20;99.90;;;;;;5076043;28;20488;-80
2021/07/31 02:03:26;;;;;;;0.57;0.50;;;16.20;99.90;;;;;;5075499;28;20935;-80
2021/07/31 02:05:53;;;;;;;0.40;0.40;;;16.20;99.90;;;;;;5075812;28;20440;-79
2021/07/31 02:08:20;;;;;;;0.70;0.50;;;16.10;99.90;;;;;;5075731;28;20778;-80
2021/07/31 02:10:47;;;;;;;0.70;0.53;;;16.10;99.90;;;;;;5075347;28;20465;-80
2021/07/31 02:13:15;;;;;;;0.83;0.60;;;16.10;99.90;;;;;;5075321;28;20837;-80
2021/07/31 02:15:43;;;;;;;0.40;0.40;;;16.00;99.90;;;;;;5075541;28;20453;-79
2021/07/31 02:18:10;;;;;;;1.03;0.60;;;16.00;99.90;;;;;;5075489;28;20456;-80
2021/07/31 02:20:37;;;;;;;0.47;0.47;;;15.80;99.90;;;;;;5075384;28;20471;-80
2021/07/31 02:23:04;;;;;;;1.07;0.50;;;15.80;99.90;;;;;;5075075;28;20821;-80
2021/07/31 02:25:31;;;;;;;0.70;0.70;;;15.70;99.90;;;;;;5075406;28;20433;-80
2021/07/31 02:27:58;;;;;;;0.90;0.50;;;15.70;99.90;;;;;;5075315;28;20457;-80
2021/07/31 02:30:26;;;;;;;0.47;0.47;;;15.50;99.90;;;;;;5075197;28;20461;-80
2021/07/31 02:32:53;;;;;;;0.50;0.50;;;15.50;99.90;;;;;;5075041;28;20848;-83
2021/07/31 02:35:20;;;;;;;0.77;0.50;;;15.40;99.90;;;;;;5074734;28;20824;-83
2021/07/31 02:37:47;;;;;;;1.03;0.40;;;15.40;99.90;;;;;;5074368;28;20813;-83
2021/07/31 02:40:13;;;;;;;0.60;0.40;;;15.40;99.90;;;;;;5075430;28;20468;-84
2021/07/31 02:42:40;;;;;;;0.50;0.50;;;15.40;99.90;;;;;;5075020;28;20841;-84
2021/07/31 02:45:10;;;;;;;3.00;0.47;;;15.40;99.90;;;;;;5074646;28;20955;-83
2021/07/31 02:47:38;;;;;;;0.73;0.47;;;15.40;99.90;;;;;;5074947;28;20445;-83
2021/07/31 02:50:05;;;;;;;0.30;0.30;;;15.30;99.90;;;;;;5074946;28;20477;-83
2021/07/31 02:52:32;;;;;;;0.50;0.30;;;15.30;99.90;;;;;;5074839;28;20445;-83
2021/07/31 02:55:02;;;;;;;0.60;0.60;;;15.30;99.90;;;;;;5074713;28;20441;-83
2021/07/31 02:57:29;;;;;;;2.00;0.40;;;15.30;99.90;;;;;;5075001;28;20440;-84
2021/07/31 02:59:56;;;;;;;0.37;0.30;;;15.30;99.90;;;;;;5074319;28;20543;-83
2021/07/31 03:02:24;;;;;;;0.40;0.40;;;15.20;99.90;;;;;;5074363;28;20444;-84
2021/07/31 03:04:52;;;;;;;0.40;0.40;;;15.20;99.90;;;;;;5074425;28;20939;-83
2021/07/31 03:07:20;;;;;;;0.70;0.50;;;15.20;99.90;;;;;;5074728;28;20449;-84
2021/07/31 03:09:47;;;;;;;0.60;0.50;;;15.20;99.90;;;;;;5074402;28;20862;-84
2021/07/31 03:12:14;;;;;;;0.87;0.40;;;15.10;99.90;;;;;;5074424;28;20456;-83
2021/07/31 03:14:42;;;;;;;0.47;0.33;;;15.10;99.90;;;;;;5074347;28;20513;-84
2021/07/31 03:17:09;;;;;;;0.30;0.30;;;15.10;99.90;;;;;;5074327;28;20448;-84
2021/07/31 03:19:36;;;;;;;0.43;0.43;;;15.10;99.90;;;;;;5074174;28;20445;-84
2021/07/31 03:22:04;;;;;;;0.60;0.60;;;15.00;99.90;;;;;;5074442;28;20452;-84
2021/07/31 03:24:31;;;;;;;0.37;0.30;;;15.00;99.90;;;;;;5074192;28;20811;-84
2021/07/31 03:26:58;;;;;;;0.40;0.40;;;15.10;99.90;;;;;;5074305;28;20837;-84
2021/07/31 03:29:25;;;;;;;0.40;0.40;;;15.10;99.90;;;;;;5073869;28;20444;-84
2021/07/31 03:31:52;;;;;;;1.67;0.50;;;15.00;99.90;;;;;;5073672;28;20465;-84
2021/07/31 03:34:21;;;;;;;0.73;0.40;;;15.10;99.90;;;;;;5073944;28;20533;-84
2021/07/31 03:36:51;;;;;;;0.63;0.57;;;15.10;99.90;;;;;;5074278;28;20445;-84
2021/07/31 03:39:21;;;;;;;0.60;0.47;;;15.10;99.90;;;;;;5073686;28;20480;-84
2021/07/31 03:41:47;;;;;;;1.03;0.50;;;15.10;99.90;;;;;;5073803;28;20465;-84
2021/07/31 03:44:14;;;;;;;0.50;0.43;;;15.10;99.90;;;;;;5073876;28;20453;-83
2021/07/31 03:46:43;;;;;;;0.83;0.60;;;15.10;99.90;;;;;;5073932;28;20432;-84
2021/07/31 03:49:10;;;;;;;0.50;0.40;;;15.10;99.90;;;;;;5073785;28;20453;-84
2021/07/31 03:51:37;;;;;;;0.60;0.60;;;15.10;99.90;;;;;;5073937;28;20468;-83
2021/07/31 03:54:03;;;;;;;0.47;0.47;;;15.00;99.90;;;;;;5073698;28;20492;-84
2021/07/31 03:56:32;;;;;;;0.50;0.50;;;15.00;99.90;;;;;;5073430;28;20794;-83
2021/07/31 03:58:58;;;;;;;0.80;0.60;;;15.00;99.90;;;;;;5073336;28;20816;-83
2021/07/31 04:01:26;;;;;;;0.40;0.30;;;15.00;99.90;;;;;;5073319;28;20809;-83
2021/07/31 04:03:53;;;;;;;0.30;0.30;;;15.00;99.90;;;;;;5073609;28;20437;-83
2021/07/31 04:06:20;;;;;;;0.80;0.50;;;14.90;99.90;;;;;;5073554;28;20460;-83
2021/07/31 04:08:47;;;;;;;0.33;0.33;;;14.90;99.90;;;;;;5073450;28;20448;-83
2021/07/31 04:11:14;;;;;;;0.87;0.50;;;14.90;99.90;;;;;;5073445;28;20468;-83
2021/07/31 04:13:42;;;;;;;0.60;0.60;;;14.90;99.90;;;;;;5073403;28;20476;-83
2021/07/31 04:16:09;;;;;;;2.10;0.50;;;14.90;99.90;;;;;;5073454;28;20449;-83
2021/07/31 04:18:36;;;;;;;1.00;0.30;;;14.80;99.90;;;;;;5073494;28;20445;-83
2021/07/31 04:21:05;;;;;;;0.93;0.40;;;14.80;99.90;;;;;;5073001;28;20465;-83
2021/07/31 04:23:32;;;;;;;0.70;0.40;;;14.80;99.90;;;;;;5073259;28;20457;-83
2021/07/31 04:25:59;;;;;;;0.40;0.40;;;14.80;99.90;;;;;;5073058;28;20940;-83
2021/07/31 04:28:26;;;;;;;0.50;0.43;;;14.80;99.90;;;;;;5073071;28;20440;-83
2021/07/31 04:30:54;;;;;;;0.40;0.30;;;14.80;99.90;;;;;;5072961;28;20811;-83
2021/07/31 04:33:21;;;;;;;0.63;0.47;;;14.80;99.90;;;;;;5073216;28;20449;-83
2021/07/31 04:35:47;;;;;;;0.60;0.37;;;14.80;99.90;;;;;;5072980;28;20804;-83
2021/07/31 04:38:14;;;;;;;0.30;0.30;;;14.80;99.90;;;;;;5072817;28;20880;-83
2021/07/31 04:40:41;;;;;;;0.37;0.30;;;14.90;99.90;;;;;;5072895;28;20490;-83
2021/07/31 04:43:08;;;;;;;0.70;0.50;;;14.90;99.90;;;;;;5073269;28;20441;-83
2021/07/31 04:45:35;;;;;;;0.40;0.40;;;14.90;99.90;;;;;;5072857;28;20971;-83
2021/07/31 04:48:03;;;;;;;0.50;0.47;;;14.90;99.90;;;;;;5073129;28;20452;-83
2021/07/31 04:50:30;;;;;;;1.67;0.60;;;14.90;99.90;;;;;;5072719;28;20998;-83
2021/07/31 04:52:56;;;;;;;0.50;0.50;;;14.90;99.90;;;;;;5073082;28;20448;-83
2021/07/31 04:55:23;;;;;;;0.47;0.47;;;15.00;99.90;;;;;;5072994;28;20484;-83
2021/07/31 04:57:50;;;;;;;0.50;0.50;;;15.00;99.90;;;;;;5072730;28;20441;-83
2021/07/31 05:00:17;;;;;;;1.63;0.50;;;15.10;99.90;;;;;;5075730;28;20465;-83
2021/07/31 05:02:44;;;;;;;0.40;0.40;;;15.10;99.90;;;;;;5076940;28;20448;-83
2021/07/31 05:05:12;;;;;;;0.40;0.33;;;15.10;99.90;;;;;;5076866;28;20451;-83
2021/07/31 05:07:39;;;;;;;0.40;0.40;;;15.10;99.90;;;;;;5076826;28;20449;-83
2021/07/31 05:10:06;;;;;;;0.70;0.60;;;15.10;99.90;;;;;;5076394;28;20475;-83
2021/07/31 05:12:33;;;;;;;0.70;0.47;;;15.10;99.90;;;;;;5076609;28;20944;-83
2021/07/31 05:15:00;;;;;;;0.40;0.40;;;15.20;99.90;;;;;;5076351;28;20472;-83
2021/07/31 05:17:27;;;;;;;1.50;0.50;;;15.20;99.90;;;;;;5077502;28;20432;-83
2021/07/31 05:19:53;;;;;;;0.40;0.40;;;15.20;99.90;;;;;;5076528;28;20465;-83
2021/07/31 05:22:21;;;;;;;1.57;0.80;;;15.30;99.90;;;;;;5076443;28;20449;-83
2021/07/31 05:24:53;;;;;;;0.70;0.50;;;15.30;99.90;;;;;;5076468;28;20453;-83
2021/07/31 05:27:20;;;;;;;0.60;0.60;;;15.40;99.90;;;;;;5076289;28;20435;-83
2021/07/31 05:29:47;;;;;;;0.50;0.50;;;15.50;99.90;;;;;;5076086;28;20776;-83
2021/07/31 05:32:13;;;;;;;1.37;0.80;;;15.50;99.90;;;;;;5076362;28;20452;-83
2021/07/31 05:34:40;;;;;;;1.17;0.77;;;15.60;99.90;;;;;;5076062;28;20480;-83
2021/07/31 05:37:07;;;;;;;0.70;0.60;;;15.60;99.90;;;;;;5076325;28;20886;-83
2021/07/31 05:39:35;;;;;;;0.93;0.63;;;15.70;99.90;;;;;;5075840;28;20484;-83
2021/07/31 05:42:04;;;;;;;1.50;0.50;;;15.70;99.90;;;;;;5075860;28;21015;-83
2021/07/31 05:44:32;;;;;;;0.53;0.50;;;15.80;99.90;;;;;;5076396;28;20821;-83
2021/07/31 05:46:58;;;;;;;0.87;0.67;;;15.80;99.90;;;;;;5076123;28;20453;-82
2021/07/31 05:49:25;;;;;;;1.47;0.60;;;15.80;99.90;;;;;;5075939;28;20459;-83
2021/07/31 05:51:52;;;;;;;0.80;0.80;;;15.90;99.90;;;;;;5075677;28;20459;-83
2021/07/31 05:54:19;;;;;;;0.80;0.60;;;16.00;99.90;;;;;;5075655;28;21007;-82
2021/07/31 05:56:49;;;;;;;0.50;0.30;;;16.00;99.90;;;;;;5076020;28;20506;-82
2021/07/31 05:59:16;;;;;;;1.10;0.50;;;16.10;99.90;;;;;;5076224;28;20528;-82
2021/07/31 06:01:43;;;;;;;3.10;0.80;;;16.20;99.90;;;;;;5076029;28;20468;-83
2021/07/31 06:04:09;;;;;;;0.50;0.50;;;16.20;99.90;;;;;;5076047;28;20444;-83
2021/07/31 06:06:36;;;;;;;1.63;0.67;;;16.30;99.90;;;;;;5075466;28;20525;-83
2021/07/31 06:09:03;;;;;;;0.40;0.40;;;16.30;99.90;;;;;;5075718;28;20452;-82
2021/07/31 06:11:30;;;;;;;1.37;0.60;;;16.40;99.90;;;;;;5075516;28;20469;-82
2021/07/31 06:13:58;;;;;;;3.20;0.87;;;16.60;99.90;;;;;;5075602;28;20488;-82
2021/07/31 06:16:25;;;;;;;0.40;0.40;;;16.70;99.90;;;;;;5075185;28;20947;-82
2021/07/31 06:18:51;;;;;;;1.27;0.50;;;16.80;99.90;;;;;;5075280;28;20490;-83
2021/07/31 06:21:19;;;;;;;0.60;0.60;;;16.90;99.90;;;;;;5075154;28;20986;-83
2021/07/31 06:23:45;;;;;;;0.90;0.50;;;17.00;99.90;;;;;;5075702;28;20444;-83
2021/07/31 06:26:12;;;;;;;0.40;0.40;;;17.10;99.90;;;;;;5075442;28;20453;-84
2021/07/31 06:28:39;;;;;;;0.90;0.60;;;17.20;99.90;;;;;;5075404;28;20453;-84
2021/07/31 06:31:09;;;;;;;0.97;0.70;;;17.40;99.90;;;;;;5075177;28;20449;-83
2021/07/31 06:33:35;;;;;;;0.40;0.40;;;17.40;99.90;;;;;;5075871;28;20449;-84
2021/07/31 06:36:02;;;;;;;0.60;0.40;;;17.60;99.90;;;;;;5075340;28;20998;-84
2021/07/31 06:38:29;;;;;;;0.50;0.50;;;17.70;99.90;;;;;;5074851;28;21004;-84
2021/07/31 06:40:56;;;;;;;1.63;0.97;;;17.90;99.90;;;;;;5075237;28;20449;-83
2021/07/31 06:43:23;;;;;;;0.90;0.80;;;18.00;99.90;;;;;;5075123;28;20434;-83
2021/07/31 06:45:50;;;;;;;0.53;0.53;;;18.00;99.90;;;;;;5075070;28;20430;-84
2021/07/31 06:48:18;;;;;;;0.50;0.40;;;18.20;99.90;;;;;;5075055;28;20908;-84
2021/07/31 06:50:45;;;;;;;0.60;0.60;;;18.30;99.90;;;;;;5074800;28;20460;-85
2021/07/31 06:53:12;;;;;;;0.83;0.40;;;18.30;99.90;;;;;;5074741;28;20410;-84
2021/07/31 06:55:38;;;;;;;0.77;0.40;;;18.40;99.90;;;;;;5074849;28;20513;-85
2021/07/31 06:58:05;;;;;;;0.60;0.50;;;18.50;99.90;;;;;;5075094;28;20780;-84
2021/07/31 07:00:32;;;;;;;5.40;0.70;;;18.60;99.90;;;;;;5074543;28;20445;-84
2021/07/31 07:02:59;;;;;;;0.50;0.50;;;18.80;99.90;;;;;;5074806;28;20452;-85
2021/07/31 07:05:27;;;;;;;0.67;0.67;;;18.80;99.90;;;;;;5074755;28;20452;-84
2021/07/31 07:07:54;;;;;;;2.40;0.50;;;18.90;99.90;;;;;;5074794;28;20813;-84
2021/07/31 07:10:20;;;;;;;0.40;0.40;;;19.00;99.90;;;;;;5074520;28;20968;-84
2021/07/31 07:12:47;;;;;;;1.10;0.87;;;19.00;99.90;;;;;;5074505;28;20476;-84
2021/07/31 07:15:14;;;;;;;0.47;0.47;;;19.00;99.90;;;;;;5074313;28;20478;-84
2021/07/31 07:17:40;;;;;;;0.63;0.63;;;19.10;99.90;;;;;;5074668;28;20460;-84
2021/07/31 07:20:08;;;;;;;0.80;0.50;;;19.30;99.90;;;;;;5074319;28;20457;-84
2021/07/31 07:22:36;;;;;;;0.90;0.60;;;19.40;99.90;;;;;;5073930;28;20440;-83
2021/07/31 07:25:04;;;;;;;5.60;0.60;;;19.40;99.90;;;;;;5074187;28;20457;-84
2021/07/31 07:27:30;;;;;;;0.50;0.47;;;19.60;99.90;;;;;;5073971;28;20463;-84
2021/07/31 07:29:57;;;;;;;0.47;0.47;;;19.70;99.90;;;;;;5073867;28;20984;-84
2021/07/31 07:32:24;;;;;;;0.50;0.33;;;19.70;99.90;;;;;;5074283;28;20803;-84
2021/07/31 07:34:50;;;;;;;0.50;0.50;;;19.90;99.90;;;;;;5074190;28;20485;-84
2021/07/31 07:37:17;;;;;;;0.40;0.40;;;20.00;99.90;;;;;;5074195;28;20449;-85
2021/07/31 07:39:45;;;;;;;0.80;0.40;;;20.10;99.90;;;;;;5073793;28;20477;-85
2021/07/31 07:42:13;;;;;;;0.60;0.50;;;20.10;99.90;;;;;;5074214;28;20445;-85
2021/07/31 07:44:40;;;;;;;0.77;0.60;;;20.20;99.90;;;;;;5073807;28;20463;-85
2021/07/31 07:47:07;;;;;;;0.40;0.40;;;20.30;99.90;;;;;;5074413;28;20449;-84
2021/07/31 07:49:34;;;;;;;0.47;0.37;;;20.40;99.90;;;;;;5073855;28;20445;-84
2021/07/31 07:52:01;;;;;;;0.50;0.50;;;20.50;99.90;;;;;;5074522;28;20455;-83
2021/07/31 07:54:29;;;;;;;1.33;0.60;;;20.60;99.90;;;;;;5074429;28;20495;-85
2021/07/31 07:56:57;;;;;;;0.33;0.33;;;20.80;99.90;;;;;;5074707;28;20460;-85
2021/07/31 07:59:24;;;;;;;0.40;0.40;;;20.90;99.90;;;;;;5074146;28;20459;-84
2021/07/31 08:01:51;;;;;;;0.40;0.30;;;21.10;99.90;;;;;;5073838;28;20472;-80
2021/07/31 08:04:18;;;;;;;1.60;0.40;;;21.20;99.90;;;;;;5073926;28;20435;-84
2021/07/31 08:06:45;;;;;;;0.50;0.40;;;21.30;99.90;;;;;;5074226;28;20444;-84
2021/07/31 08:09:11;;;;;;;0.43;0.43;;;21.60;99.90;;;;;;5073988;28;20448;-84
2021/07/31 08:11:42;;;;;;;0.77;0.40;;;21.70;99.90;;;;;;5073897;28;20225;-86
2021/07/31 08:14:11;;;;;;;0.70;0.40;;;21.80;99.90;;;;;;5073779;28;20281;-84
2021/07/31 08:16:37;;;;;;;0.73;0.40;;;21.90;99.90;;;;;;5073651;28;20229;-85
2021/07/31 08:19:06;;;;;;;0.50;0.40;;;22.20;99.90;;;;;;5073768;28;20209;-85
2021/07/31 08:21:33;;;;;;;0.50;0.40;;;22.40;99.90;;;;;;5073785;28;20221;-84
2021/07/31 08:24:00;;;;;;;1.70;0.40;;;22.50;99.90;;;;;;5073739;28;20205;-85
2021/07/31 08:26:27;;;;;;;0.50;0.40;;;22.50;99.90;;;;;;5073557;28;20202;-84
2021/07/31 08:28:54;;;;;;;0.30;0.30;;;22.70;99.90;;;;;;5073932;28;20198;-85
2021/07/31 08:31:24;;;;;;;0.52;0.50;;;22.70;99.90;;;;;;5073374;28;20222;-85
2021/07/31 08:33:52;;;;;;;0.50;0.45;;;22.60;99.90;;;;;;5074011;28;20190;-84
2021/07/31 08:36:20;;;;;;;0.35;0.32;;;22.60;99.90;;;;;;5077319;28;20222;-84
2021/07/31 08:38:46;;;;;;;0.40;0.40;;;22.60;99.90;;;;;;5077214;28;20758;-83
2021/07/31 08:41:16;;;;;;;1.23;0.40;;;22.50;99.90;;;;;;5077316;28;20225;-84
2021/07/31 08:43:43;;;;;;;0.40;0.40;;;22.60;99.90;;;;;;5077416;28;20569;-84
2021/07/31 08:46:10;;;;;;;1.73;0.60;;;22.50;99.90;;;;;;5077512;28;20190;-84
2021/07/31 08:48:39;;;;;;;0.50;0.50;;;22.50;99.90;;;;;;5078553;28;20175;-84
2021/07/31 08:51:07;;;;;;;0.40;0.40;;;22.50;99.90;;;;;;5077872;28;20221;-84
2021/07/31 08:53:34;;;;;;;0.60;0.50;;;22.50;99.90;;;;;;5077220;28;20503;-84
2021/07/31 08:56:01;;;;;;;1.10;0.50;;;22.50;99.90;;;;;;5077216;28;20220;-84
2021/07/31 08:58:29;;;;;;;0.40;0.40;;;22.50;99.90;;;;;;5077236;28;20442;-84
2021/07/31 09:00:57;;;;;;;0.50;0.50;;;22.40;99.90;;;;;;5077088;28;20708;-84
2021/07/31 09:03:24;;;;;;;0.60;0.50;;;22.50;99.90;;;;;;5077128;28;20193;-84
2021/07/31 09:05:53;;;;;;;1.00;0.90;;;22.50;99.90;;;;;;5076790;28;20576;-84
2021/07/31 09:08:19;;;;;;;0.60;0.60;;;22.70;99.90;;;;;;5077869;28;20273;-84
2021/07/31 09:10:47;;;;;;;0.40;0.40;;;22.60;99.90;;;;;;5076831;28;20226;-83
2021/07/31 09:13:15;;;;;;;0.40;0.40;;;22.60;99.90;;;;;;5076612;28;20516;-84
2021/07/31 09:15:44;;;;;;;0.40;0.33;;;22.80;99.90;;;;;;5076894;28;20476;-84
2021/07/31 09:18:22;;;;;;;0.40;0.40;;;22.90;99.90;;;;;;5076629;28;20201;-85
2021/07/31 09:21:12;;;;;;;0.40;0.30;;;23.00;99.90;;;;;;5076659;28;20591;-83
2021/07/31 09:23:45;;;;;;;0.40;0.40;;;23.00;99.90;;;;;;5072702;28;20452;-84
2021/07/31 09:26:15;;;;;;;0.40;0.40;;;22.90;99.90;;;;;;5076644;28;20420;-84
2021/07/31 09:28:42;;;;;;;0.47;0.40;;;22.90;99.90;;;;;;5076431;28;20198;-84
2021/07/31 09:31:14;;;;;;;0.40;0.40;;;23.00;99.90;;;;;;5076378;28;20460;-83
2021/07/31 09:33:46;;;;;;;0.40;0.40;;;23.10;99.90;;;;;;5076225;28;20193;-84
2021/07/31 09:36:15;;;;;;;1.07;0.50;;;23.10;99.90;;;;;;5076142;28;20202;-83
2021/07/31 09:38:44;;;;;;;0.70;0.32;;;23.10;99.90;;;;;;5076630;28;20233;-84
2021/07/31 09:41:32;;;;;;;1.65;0.40;;;23.10;99.90;;;;;;5076280;28;20315;-84
2021/07/31 09:44:17;;;;;;;0.40;0.40;;;23.20;99.90;;;;;;5076329;28;20192;-83
2021/07/31 09:46:46;;;;;;;3.80;0.57;;;23.30;99.90;;;;;;5075672;28;20191;-84
2021/07/31 09:49:14;;;;;;;0.30;0.30;;;23.30;99.00;;;;;;5076083;28;20185;-83
2021/07/31 09:51:44;;;;;;;0.50;0.50;;;23.40;99.90;;;;;;5075918;28;20237;-84
2021/07/31 09:54:13;;;;;;;0.40;0.40;;;23.40;99.00;;;;;;5075867;28;20179;-84
2021/07/31 09:56:46;;;;;;;0.40;0.40;;;23.50;99.20;;;;;;5075823;28;20209;-83
2021/07/31 09:59:14;;;;;;;0.40;0.40;;;23.60;99.90;;;;;;5076121;28;20179;-85
2021/07/31 10:01:47;;;;;;;0.40;0.40;;;23.70;98.90;;;;;;5075931;28;20226;-84
2021/07/31 10:04:14;;;;;;;0.40;0.40;;;23.90;98.10;;;;;;5075840;28;20189;-84
2021/07/31 10:06:42;;;;;;;0.40;0.40;;;24.20;98.60;;;;;;5075916;28;20189;-84
2021/07/31 10:09:10;;;;;;;4.68;0.40;;;24.50;97.20;;;;;;5076086;28;20197;-84
2021/07/31 10:11:39;;;;;;;0.43;0.40;;;24.70;95.50;;;;;;5075754;28;20229;-83
2021/07/31 10:14:08;;;;;;;1.30;0.65;;;24.80;96.60;;;;;;5075790;28;20190;-83
2021/07/31 10:16:37;;;;;;;0.40;0.40;;;24.80;93.40;;;;;;5075609;28;20256;-83
2021/07/31 10:19:05;;;;;;;0.50;0.50;;;24.90;96.30;;;;;;5075685;28;20193;-83
2021/07/31 10:21:35;;;;;;;0.40;0.40;;;24.90;94.50;;;;;;5075612;28;20321;-84
2021/07/31 10:24:05;;;;;;;0.40;0.40;;;25.10;94.40;;;;;;5075544;28;20188;-83
2021/07/31 10:26:33;;;;;;;0.60;0.38;;;25.30;93.90;;;;;;5075217;28;20641;-84
2021/07/31 10:29:37;;;;;;;0.90;0.52;;;25.30;93.70;;;;;;5075183;28;20286;-83
2021/07/31 10:32:40;;;;;;;0.45;0.43;;;25.50;93.80;;;;;;5075447;28;20190;-83
2021/07/31 10:35:21;;;;;;;0.40;0.40;;;25.60;92.50;;;;;;5042714;28;20197;-83
2021/07/31 10:37:48;;;;;;;0.40;0.30;;;25.80;92.30;;;;;;5075239;28;20629;-82
2021/07/31 10:40:51;;;;;;;0.57;0.50;;;26.30;90.50;;;;;;5074870;28;20222;-83
2021/07/31 10:43:20;;;;;;;0.50;0.43;;;26.70;87.10;;;;;;5075467;28;20539;-84
2021/07/31 10:45:49;;;;;;;1.50;0.50;;;27.00;87.40;;;;;;5075116;28;20186;-85
2021/07/31 10:48:33;;;;;;;0.50;0.47;;;27.10;85.60;;;;;;5075005;28;20190;-84
2021/07/31 10:51:00;;;;;;;1.52;0.40;;;27.30;82.50;;;;;;5074584;28;20792;-83
2021/07/31 10:53:51;;;;;;;0.40;0.40;;;27.40;79.30;;;;;;5075221;28;20183;-84
2021/07/31 10:56:18;;;;;;;0.40;0.40;;;27.30;83.20;;;;;;5074034;28;20198;-82
2021/07/31 10:59:19;;;;;;;0.50;0.50;;;27.10;85.80;;;;;;5074509;28;20193;-84
2021/07/31 11:01:46;;;;;;;0.40;0.40;;;27.40;78.60;;;;;;5074626;28;20218;-83
2021/07/31 11:04:52;;;;;;;0.30;0.30;;;27.30;78.40;;;;;;5074677;28;20194;-84
2021/07/31 11:07:24;;;;;;;0.40;0.40;;;27.20;80.30;;;;;;5057050;28;20576;-83
2021/07/31 11:10:28;;;;;;;0.70;0.70;;;27.00;82.30;;;;;;5074680;28;20696;-83
2021/07/31 11:12:55;;;;;;;0.30;0.30;;;26.70;82.40;;;;;;5074554;28;20185;-82
2021/07/31 11:15:23;;;;;;;0.43;0.40;;;26.30;81.90;;;;;;5074186;28;20186;-83
2021/07/31 11:17:56;;;;;;;0.45;0.45;;;25.80;77.30;;;;;;5074880;28;20206;-83
2021/07/31 11:20:30;;;;;;;0.70;0.70;;;25.40;80.60;;;;;;5074371;28;20230;-83
2021/07/31 11:23:01;;;;;;;0.40;0.40;;;25.30;80.80;;;;;;5074299;28;20564;-83
2021/07/31 11:25:28;;;;;;;0.50;0.43;;;25.20;81.10;;;;;;5074315;28;20644;-83
2021/07/31 11:27:57;;;;;;;0.40;0.40;;;25.30;85.50;;;;;;5074204;28;20201;-83
2021/07/31 11:30:36;;;;;;;0.55;0.52;;;25.00;79.90;;;;;;5074087;28;20236;-82
2021/07/31 11:33:22;;;;;;;0.40;0.30;;;24.70;83.00;;;;;;5074068;28;20598;-82
2021/07/31 11:35:50;;;;;;;0.50;0.50;;;24.80;85.30;;;;;;5073545;28;20209;-82
2021/07/31 11:38:35;;;;;;;0.50;0.45;;;24.80;86.40;;;;;;5071777;28;20234;-82
2021/07/31 11:41:04;;;;;;;0.50;0.47;;;24.90;89.40;;;;;;5073412;28;20221;-82
2021/07/31 11:43:43;;;;;;;0.40;0.40;;;25.00;88.60;;;;;;5073676;28;20664;-82
2021/07/31 11:46:37;;;;;;;0.60;0.60;;;25.10;84.60;;;;;;5073580;28;20269;-82
2021/07/31 11:49:07;;;;;;;0.40;0.40;;;25.10;87.50;;;;;;5073889;28;20182;-82
2021/07/31 11:51:34;;;;;;;0.40;0.40;;;25.00;87.30;;;;;;5073730;28;20226;-82
2021/07/31 11:54:08;;;;;;;0.35;0.35;;;24.60;84.50;;;;;;5073831;28;20182;-82
2021/07/31 11:56:36;;;;;;;0.40;0.35;;;24.30;89.50;;;;;;5073697;28;20263;-82
2021/07/31 11:59:05;;;;;;;0.40;0.30;;;24.10;89.10;;;;;;5073731;28;20186;-83
2021/07/31 12:01:32;;;;;;;0.30;0.30;;;23.90;90.10;;;;;;5073436;28;20256;-82
2021/07/31 12:04:00;;;;;;;0.50;0.40;;;23.90;90.70;;;;;;5073711;28;20190;-82
2021/07/31 12:06:44;;;;;;;0.40;0.40;;;24.10;89.00;;;;;;5073362;28;20201;-83
2021/07/31 12:09:22;;;;;;;1.15;0.50;;;24.20;85.00;;;;;;5073512;28;20189;-83
2021/07/31 12:11:51;;;;;;;0.40;0.40;;;24.20;83.50;;;;;;5073382;28;20226;-84
2021/07/31 12:14:40;;;;;;;0.40;0.40;;;24.30;85.90;;;;;;5073268;28;20194;-82
2021/07/31 12:17:14;;;;;;;0.40;0.40;;;24.30;90.40;;;;;;5073270;28;20210;-82
2021/07/31 12:19:43;;;;;;;0.30;0.30;;;24.40;87.20;;;;;;5073418;28;20205;-82
2021/07/31 12:22:13;;;;;;;0.40;0.32;;;24.40;85.90;;;;;;5073416;28;20198;-82
2021/07/31 12:24:40;;;;;;;0.50;0.40;;;24.40;85.20;;;;;;5073475;28;20186;-81
2021/07/31 12:27:07;;;;;;;0.40;0.40;;;24.40;84.20;;;;;;5073003;28;20202;-81
2021/07/31 12:29:35;;;;;;;0.43;0.40;;;24.50;85.80;;;;;;5073346;28;20213;-81
2021/07/31 12:32:21;;;;;;;0.40;0.40;;;24.40;84.10;;;;;;5073314;28;20198;-82
2021/07/31 12:34:50;;;;;;;0.40;0.40;;;24.40;82.10;;;;;;5073049;28;20681;-82
2021/07/31 12:37:16;;;;;;;0.40;0.40;;;24.40;79.00;;;;;;5073265;28;20245;-81
2021/07/31 12:39:43;;;;;;;0.40;0.40;;;24.40;81.70;;;;;;5073156;28;20256;-81
2021/07/31 12:42:10;;;;;;;0.30;0.30;;;24.30;83.60;;;;;;5072986;28;20621;-81
2021/07/31 12:44:38;;;;;;;0.60;0.60;;;24.30;84.00;;;;;;5072923;28;20194;-81
2021/07/31 12:47:05;;;;;;;0.40;0.38;;;24.20;83.20;;;;;;5073166;28;20194;-82
2021/07/31 12:49:33;;;;;;;0.40;0.40;;;24.10;82.10;;;;;;5073184;28;20599;-82
2021/07/31 12:52:02;;;;;;;0.40;0.40;;;24.00;81.90;;;;;;5072814;28;20267;-82
2021/07/31 12:54:29;;;;;;;1.08;0.60;;;23.80;81.80;;;;;;5073105;28;20201;-80
2021/07/31 12:56:55;;;;;;;0.50;0.40;;;23.80;87.50;;;;;;5073063;28;20573;-82